地図

経路データ

SID SEASON NUMBER BASIN SUBBASIN NAME ISO_TIME NATURE LAT LON WMO_WIND WMO_PRES WMO_AGENCY TRACK_TYPE DIST2LAND LANDFALL IFLAG USA_AGENCY USA_ATCF_ID USA_LAT USA_LON USA_RECORD USA_STATUS USA_WIND USA_PRES USA_SSHS USA_R34_NE USA_R34_SE USA_R34_SW USA_R34_NW USA_R50_NE USA_R50_SE USA_R50_SW USA_R50_NW USA_R64_NE USA_R64_SE USA_R64_SW USA_R64_NW USA_POCI USA_ROCI USA_RMW USA_EYE TOKYO_LAT TOKYO_LON TOKYO_GRADE TOKYO_WIND TOKYO_PRES TOKYO_R50_DIR TOKYO_R50_LONG TOKYO_R50_SHORT TOKYO_R30_DIR TOKYO_R30_LONG TOKYO_R30_SHORT TOKYO_LAND CMA_LAT CMA_LON CMA_CAT CMA_WIND CMA_PRES HKO_LAT HKO_LON HKO_CAT HKO_WIND HKO_PRES NEWDELHI_LAT NEWDELHI_LON NEWDELHI_GRADE NEWDELHI_WIND NEWDELHI_PRES NEWDELHI_CI NEWDELHI_DP NEWDELHI_POCI REUNION_LAT REUNION_LON REUNION_TYPE REUNION_WIND REUNION_PRES REUNION_TNUM REUNION_CI REUNION_RMW REUNION_R34_NE REUNION_R34_SE REUNION_R34_SW REUNION_R34_NW REUNION_R50_NE REUNION_R50_SE REUNION_R50_SW REUNION_R50_NW REUNION_R64_NE REUNION_R64_SE REUNION_R64_SW REUNION_R64_NW BOM_LAT BOM_LON BOM_TYPE BOM_WIND BOM_PRES BOM_TNUM BOM_CI BOM_RMW BOM_R34_NE BOM_R34_SE BOM_R34_SW BOM_R34_NW BOM_R50_NE BOM_R50_SE BOM_R50_SW BOM_R50_NW BOM_R64_NE BOM_R64_SE BOM_R64_SW BOM_R64_NW BOM_ROCI BOM_POCI BOM_EYE BOM_POS_METHOD BOM_PRES_METHOD NADI_LAT NADI_LON NADI_CAT NADI_WIND NADI_PRES WELLINGTON_LAT WELLINGTON_LON WELLINGTON_WIND WELLINGTON_PRES DS824_LAT DS824_LON DS824_STAGE DS824_WIND DS824_PRES TD9636_LAT TD9636_LON TD9636_STAGE TD9636_WIND TD9636_PRES TD9635_LAT TD9635_LON TD9635_WIND TD9635_PRES TD9635_ROCI NEUMANN_LAT NEUMANN_LON NEUMANN_CLASS NEUMANN_WIND NEUMANN_PRES MLC_LAT MLC_LON MLC_CLASS MLC_WIND MLC_PRES USA_GUST BOM_GUST BOM_GUST_PER REUNION_GUST REUNION_GUST_PER USA_SEAHGT USA_SEARAD_NE USA_SEARAD_SE USA_SEARAD_SW USA_SEARAD_NW STORM_SPEED STORM_DIR
1920218N21092 1920 30 NI BB NOT_NAMED 1920-08-05 00:00:00 TS 21.3000 91.7000 main 30 30 _________O____ -1 21.3000 91.7000 TC 30 3 299
1920218N21092 1920 30 NI BB NOT_NAMED 1920-08-05 03:00:00 TS 21.3600 91.5817 main 32 32 _________PO___ -1 21.3900 91.5225 TC 30 21.3000 91.7000 1 4 298
1920218N21092 1920 30 NI BB NOT_NAMED 1920-08-05 06:00:00 TS 21.4716 91.3497 main 62 62 _________OP___ -1 21.5000 91.3000 TC 30 21.4290 91.4242 1 5 297
1920218N21092 1920 30 NI BB NOT_NAMED 1920-08-05 09:00:00 TS 21.6055 91.0722 main 68 39 _________PP___ -1 21.6426 91.0075 TC 30 21.5561 91.1584 1 6 298
1920218N21092 1920 30 NI BB NOT_NAMED 1920-08-05 12:00:00 TS 21.7401 90.8067 main 39 11 _________OP___ -1 21.8000 90.7000 TC 30 21.6802 90.9135 1 5 300
1920218N21092 1920 30 NI BB NOT_NAMED 1920-08-05 15:00:00 TS 21.8787 90.5712 main 11 10 _________PO___ -1 21.9574 90.4425 TC 30 21.8000 90.7000 1 5 303
1920218N21092 1920 30 NI BB NOT_NAMED 1920-08-05 18:00:00 TS 22.0078 90.3591 main 10 0 _________OP___ -1 22.1000 90.2000 TC 30 21.9157 90.5182 1 4 302
1920218N21092 1920 30 NI BB NOT_NAMED 1920-08-05 21:00:00 TS 22.1125 90.1679 main 0 0 _________PP___ -1 22.1920 90.0096 TC 30 22.0330 90.3262 1 5 297
1920218N21092 1920 30 NI BB NOT_NAMED 1920-08-06 00:00:00 TS 22.2295 89.8855 main 0 0 _________OP___ -1 22.3000 89.7000 TC 30 22.1589 90.0711 1 8 292
1920218N21092 1920 30 NI BB NOT_NAMED 1920-08-06 03:00:00 TS 22.3964 89.4089 main 0 0 _________PO___ -1 22.4927 89.1177 TC 30 22.3000 89.7000 1 11 289
1920218N21092 1920 30 NI BB NOT_NAMED 1920-08-06 06:00:00 TS 22.5851 88.7679 main 0 0 _________OP___ -1 22.7000 88.4000 TC 30 22.4701 89.1357 1 13 286
1920218N21092 1920 30 NI BB NOT_NAMED 1920-08-06 09:00:00 TS 22.7584 88.0742 main 0 0 _________PP___ -1 22.8650 87.6924 TC 30 22.6519 88.4560 1 13 284
1920218N21092 1920 30 NI BB NOT_NAMED 1920-08-06 12:00:00 TS 22.9163 87.3615 main 0 0 _________OP___ -1 23.0000 87.0000 TC 30 22.8325 87.7231 1 13 283
1920218N21092 1920 30 NI BB NOT_NAMED 1920-08-06 15:00:00 TS 23.0498 86.6923 main 0 0 _________PO___ -1 23.0996 86.3847 TC 30 23.0000 87.0000 1 12 282
1920218N21092 1920 30 NI BB NOT_NAMED 1920-08-06 18:00:00 TS 23.1652 86.0827 main 0 0 _________OP___ -1 23.2000 85.8000 TC 30 23.1304 86.3654 1 11 282
1920218N21092 1920 30 NI BB NOT_NAMED 1920-08-06 21:00:00 TS 23.2957 85.4732 main 0 0 _________PP___ -1 23.3424 85.1925 TC 30 23.2490 85.7538 1 11 284
1920218N21092 1920 30 NI BB NOT_NAMED 1920-08-07 00:00:00 TS 23.4341 84.8827 main 0 0 _________OP___ -1 23.5000 84.6000 TC 30 23.3681 85.1654 1 11 285
1920218N21092 1920 30 NI BB NOT_NAMED 1920-08-07 03:00:00 TS 23.5711 84.3174 main 0 0 _________PO___ -1 23.6423 84.0348 TC 30 23.5000 84.6000 1 11 286
1920218N21092 1920 30 NI BB NOT_NAMED 1920-08-07 06:00:00 TS 23.7302 83.7626 main 0 0 _________OP___ -1 23.8000 83.5000 TC 30 23.6603 84.0251 1 11 289
1920218N21092 1920 30 NI BB NOT_NAMED 1920-08-07 09:00:00 TS 23.9173 83.2226 main 0 0 _________PP___ -1 24.0000 82.9701 TC 30 23.8347 83.4752 1 10 292
1920218N21092 1920 30 NI BB NOT_NAMED 1920-08-07 12:00:00 TS 24.1084 82.7313 main 0 0 _________OP___ -1 24.2000 82.5000 TC 30 24.0168 82.9626 1 9 293
1920218N21092 1920 30 NI BB NOT_NAMED 1920-08-07 15:00:00 TS 24.2749 82.3136 main 0 0 _________PO___ -1 24.3497 82.1272 TC 30 24.2000 82.5000 1 8 295
1920218N21092 1920 30 NI BB NOT_NAMED 1920-08-07 18:00:00 TS 24.4311 81.9688 main 0 0 _________OP___ -1 24.5000 81.8000 TC 30 24.3794 82.0954 1 7 298
1920218N21092 1920 30 NI BB NOT_NAMED 1920-08-07 21:00:00 TS 24.6082 81.6258 main 0 0 _________PP___ -1 24.6878 81.4579 TC 30 24.5552 81.7378 1 7 301
1920218N21092 1920 30 NI BB NOT_NAMED 1920-08-08 00:00:00 TS 24.7856 81.3075 main 0 0 _________OP___ -1 24.9000 81.1000 TC 30 24.7283 81.4113 1 6 301
1920218N21092 1920 30 NI BB NOT_NAMED 1920-08-08 03:00:00 NR 24.9000 81.1000 main 0 __________O___ -1 TC 24.9000 81.1000 1 4 301

IBTrACS Databaseについて

本データベースは、米国NOAAが公開する1842年以降の世界の熱帯低気圧のベストトラックデータアーカイブInternational Best Track Archive for Climate Stewardship (IBTrACS)を、ウェブで閲覧しやすい形式に変換したものです。

最終更新日:2021-12-03